Time;durP1;ratioP1;P1;durP2;ratioP2;P2;SDS_P1;SDS_P2;PMS_P1;PMS_P2;Temp;Humidity;BMP_temperature;BMP_pressure;BME280_temperature;BME280_humidity;BME280_pressure;Samples;Min_cycle;Max_cycle;Signal;HPM_P1;HPM_P2
2022/12/09 00:01:14;;;;;;;15.55;10.75;;;;;;;;;;5024780;28;20576;-80
2022/12/09 00:03:40;;;;;;;24.90;13.57;;;;;;;;;;5034097;28;20100;-77
2022/12/09 00:06:06;;;;;;;21.17;14.07;;;;;;;;;;5028761;28;20506;-78
2022/12/09 00:08:34;;;;;;;19.98;13.20;;;;;;;;;;5029305;28;20087;-80
2022/12/09 00:11:00;;;;;;;25.90;13.18;;;;;;;;;;5031951;28;20041;-80
2022/12/09 00:13:26;;;;;;;18.52;13.38;;;;;;;;;;5031375;28;20057;-81
2022/12/09 00:15:52;;;;;;;20.58;13.25;;;;;;;;;;5031787;28;20398;-81
2022/12/09 00:18:18;;;;;;;21.08;12.98;;;;;;;;;;5013625;28;20046;-79
2022/12/09 00:20:44;;;;;;;25.90;15.82;;;;;;;;;;5030645;28;20041;-78
2022/12/09 00:23:10;;;;;;;14.13;10.82;;;;;;;;;;5012917;28;20041;-80
2022/12/09 00:25:36;;;;;;;15.27;12.15;;;;;;;;;;5036594;28;20049;-80
2022/12/09 00:31:55;;;;;;;20.05;12.20;;;;;;;;;;5036772;28;20044;-81
2022/12/09 00:34:22;;;;;;;18.02;12.90;;;;;;;;;;5036482;28;20053;-80
2022/12/09 00:36:48;;;;;;;18.83;13.23;;;;;;;;;;5019786;28;20572;-81
2022/12/09 00:39:14;;;;;;;22.85;14.35;;;;;;;;;;5019735;28;20045;-81
2022/12/09 00:41:40;;;;;;;15.32;12.25;;;;;;;;;;5004954;28;20034;-81
2022/12/09 00:44:06;;;;;;;18.33;11.63;;;;;;;;;;5038211;28;20092;-80
2022/12/09 00:46:33;;;;;;;25.55;13.60;;;;;;;;;;5003570;28;20057;-81
2022/12/09 00:48:58;;;;;;;17.25;10.38;;;;;;;;;;5003701;28;20037;-80
2022/12/09 00:51:24;;;;;;;21.33;14.48;;;;;;;;;;5021330;28;20126;-79
2022/12/09 00:53:54;;;;;;;23.38;12.77;;;;;;;;;;5015446;28;20068;-80
2022/12/09 00:56:21;;;;;;;20.13;13.10;;;;;;;;;;5001761;28;20120;-81
2022/12/09 00:58:47;;;;;;;19.63;12.45;;;;;;;;;;4997693;28;20136;-81
2022/12/09 01:01:16;;;;;;;19.00;13.55;;;;;;;;;;4996771;28;20034;-81
2022/12/09 01:03:42;;;;;;;17.67;12.23;;;;;;;;;;5001067;28;20073;-81
2022/12/09 01:06:09;;;;;;;22.15;13.68;;;;;;;;;;5016704;28;20573;-80
2022/12/09 01:08:35;;;;;;;21.75;15.18;;;;;;;;;;5021349;28;20073;-79
2022/12/09 01:11:06;;;;;;;21.05;12.45;;;;;;;;;;5004155;28;20037;-79
2022/12/09 01:13:32;;;;;;;;;;;;;;;;;;5003853;28;20053;-80
2022/12/09 01:15:59;;;;;;;21.38;13.85;;;;;;;;;;5022385;28;19914;-81
2022/12/09 01:18:25;;;;;;;17.58;10.93;;;;;;;;;;5007184;28;20663;-82
2022/12/09 01:20:55;;;;;;;19.25;11.15;;;;;;;;;;5009082;28;20046;-81
2022/12/09 01:23:21;;;;;;;21.40;12.73;;;;;;;;;;5023776;28;20123;-80
2022/12/09 01:25:47;;;;;;;19.48;13.30;;;;;;;;;;5003610;28;20140;-82
2022/12/09 01:28:13;;;;;;;20.40;13.52;;;;;;;;;;5022388;28;20076;-80
2022/12/09 01:30:40;;;;;;;19.02;12.75;;;;;;;;;;5020743;28;20077;-81
2022/12/09 01:33:06;;;;;;;17.75;12.73;;;;;;;;;;5005681;28;20080;-80
2022/12/09 01:35:32;;;;;;;18.17;11.77;;;;;;;;;;5022762;28;20042;-81
2022/12/09 01:37:58;;;;;;;18.55;11.02;;;;;;;;;;5006455;28;20044;-80
2022/12/09 01:40:24;;;;;;;18.88;12.15;;;;;;;;;;5023169;28;20033;-81
2022/12/09 01:42:50;;;;;;;34.97;15.73;;;;;;;;;;5022606;28;20057;-80
2022/12/09 01:45:21;;;;;;;28.08;14.02;;;;;;;;;;4997231;28;20097;-81
2022/12/09 01:48:10;;;;;;;16.98;11.15;;;;;;;;;;5008491;28;20104;-80
2022/12/09 01:50:36;;;;;;;29.92;20.17;;;;;;;;;;5020394;28;20037;-78
2022/12/09 01:53:03;;;;;;;17.90;11.85;;;;;;;;;;5025845;28;20069;-80
2022/12/09 01:55:28;;;;;;;22.92;14.05;;;;;;;;;;5001752;28;20407;-78
2022/12/09 01:57:55;;;;;;;22.20;12.20;;;;;;;;;;5017627;28;20529;-79
2022/12/09 02:00:20;;;;;;;22.48;12.65;;;;;;;;;;5019963;28;20038;-80
2022/12/09 02:02:48;;;;;;;18.60;12.13;;;;;;;;;;5013436;28;20134;-81
2022/12/09 02:05:17;;;;;;;26.27;13.13;;;;;;;;;;4997314;28;20056;-80
2022/12/09 02:07:48;;;;;;;14.77;10.65;;;;;;;;;;5011268;28;20112;-79
2022/12/09 02:10:14;;;;;;;25.25;13.27;;;;;;;;;;4995018;28;20100;-79
2022/12/09 02:13:00;;;;;;;29.20;16.20;;;;;;;;;;4995711;28;20128;-79
2022/12/09 02:15:32;;;;;;;27.75;13.38;;;;;;;;;;5010589;28;20506;-78
2022/12/09 02:17:58;;;;;;;;;;;;;;;;;;4995337;28;20133;-79
2022/12/09 02:20:24;;;;;;;26.33;13.90;;;;;;;;;;4978747;28;20028;-79
2022/12/09 02:22:59;;;;;;;32.75;16.73;;;;;;;;;;5016470;28;20042;-81
2022/12/09 02:25:40;;;;;;;29.45;14.45;;;;;;;;;;5016764;28;20601;-79
2022/12/09 02:28:30;;;;;;;21.67;13.95;;;;;;;;;;4996372;28;20045;-78
2022/12/09 02:31:07;;;;;;;27.85;16.35;;;;;;;;;;4965404;28;20141;-78
2022/12/09 02:33:52;;;;;;;23.02;13.13;;;;;;;;;;4977890;28;20062;-79
2022/12/09 02:36:19;;;;;;;32.38;15.82;;;;;;;;;;4983182;28;20042;-81
2022/12/09 02:38:46;;;;;;;37.05;17.60;;;;;;;;;;5003516;28;20026;-80
2022/12/09 02:41:14;;;;;;;34.83;15.02;;;;;;;;;;4994786;28;20041;-79
2022/12/09 02:43:47;;;;;;;29.20;15.32;;;;;;;;;;4994520;28;20097;-78
2022/12/09 02:46:14;;;;;;;33.73;17.10;;;;;;;;;;5012994;28;20077;-80
2022/12/09 02:48:42;;;;;;;27.60;14.32;;;;;;;;;;4985574;28;20284;-81
2022/12/09 02:51:09;;;;;;;39.25;16.23;;;;;;;;;;4980811;28;20038;-79
2022/12/09 02:53:36;;;;;;;39.83;18.85;;;;;;;;;;4995889;28;20053;-78
2022/12/09 02:56:03;;;;;;;43.80;18.98;;;;;;;;;;4998301;28;20041;-77
2022/12/09 02:58:32;;;;;;;37.40;16.38;;;;;;;;;;4993601;28;20048;-78
2022/12/09 03:00:58;;;;;;;43.25;18.30;;;;;;;;;;5008022;28;20048;-77
2022/12/09 03:03:25;;;;;;;29.45;13.43;;;;;;;;;;4988595;28;20038;-78
2022/12/09 03:05:55;;;;;;;28.88;14.85;;;;;;;;;;4988891;28;20042;-77
2022/12/09 03:08:34;;;;;;;23.92;16.63;;;;;;;;;;4990905;28;20034;-78
2022/12/09 03:11:02;;;;;;;23.85;14.30;;;;;;;;;;4989301;28;20077;-78
2022/12/09 03:13:40;;;;;;;33.35;16.75;;;;;;;;;;4989048;28;20058;-78
2022/12/09 03:16:09;;;;;;;12.50;10.68;;;;;;;;;;4989993;28;20046;-78
2022/12/09 03:18:35;;;;;;;24.83;13.27;;;;;;;;;;4989283;28;20730;-77
2022/12/09 03:21:01;;;;;;;19.98;10.80;;;;;;;;;;4973825;28;20117;-78
2022/12/09 03:23:27;;;;;;;17.23;10.82;;;;;;;;;;4990193;28;20656;-77
2022/12/09 03:25:53;;;;;;;37.67;14.68;;;;;;;;;;4971667;28;20052;-77
2022/12/09 03:28:23;;;;;;;21.33;12.30;;;;;;;;;;4990347;28;20039;-78
2022/12/09 03:30:49;;;;;;;23.25;14.93;;;;;;;;;;4989936;28;20057;-78
2022/12/09 03:33:16;;;;;;;14.05;10.02;;;;;;;;;;4989980;28;20049;-79
2022/12/09 03:35:42;;;;;;;22.30;12.05;;;;;;;;;;4988996;28;20038;-78
2022/12/09 03:38:09;;;;;;;11.52;8.75;;;;;;;;;;4988564;28;20429;-78
2022/12/09 03:40:35;;;;;;;26.52;14.18;;;;;;;;;;4989908;28;20038;-78
2022/12/09 03:43:03;;;;;;;27.85;12.93;;;;;;;;;;4989909;28;20050;-78
2022/12/09 03:45:29;;;;;;;34.78;16.90;;;;;;;;;;4988558;28;20038;-78
2022/12/09 03:47:55;;;;;;;24.08;12.50;;;;;;;;;;5002284;28;20475;-78
2022/12/09 03:50:21;;;;;;;26.63;13.75;;;;;;;;;;4989476;28;20061;-78
2022/12/09 03:52:50;;;;;;;52.63;24.20;;;;;;;;;;4981641;28;20097;-79
2022/12/09 03:55:19;;;;;;;25.10;12.45;;;;;;;;;;4989181;28;20069;-78
2022/12/09 03:57:45;;;;;;;21.33;13.50;;;;;;;;;;4977474;28;20115;-78
2022/12/09 04:00:12;;;;;;;38.67;19.73;;;;;;;;;;5007725;28;20053;-78
2022/12/09 04:02:38;;;;;;;33.83;14.18;;;;;;;;;;4997146;28;20054;-79
2022/12/09 04:05:05;;;;;;;48.47;19.48;;;;;;;;;;4983071;28;20049;-78
2022/12/09 04:07:31;;;;;;;28.33;14.50;;;;;;;;;;5008671;28;20093;-79
2022/12/09 04:09:56;;;;;;;28.13;15.43;;;;;;;;;;5008403;28;20462;-77
2022/12/09 04:12:22;;;;;;;20.48;12.23;;;;;;;;;;5009028;28;20522;-78
2022/12/09 04:14:49;;;;;;;22.98;12.38;;;;;;;;;;5002403;28;20756;-78
2022/12/09 04:17:15;;;;;;;28.33;12.63;;;;;;;;;;5008832;28;20443;-78
2022/12/09 04:19:41;;;;;;;13.13;9.40;;;;;;;;;;5001871;28;20054;-78
2022/12/09 04:22:07;;;;;;;28.48;12.35;;;;;;;;;;5020590;28;20048;-78
2022/12/09 04:24:35;;;;;;;26.35;10.68;;;;;;;;;;4996965;28;20046;-77
2022/12/09 04:27:00;;;;;;;27.38;14.20;;;;;;;;;;4997102;28;20450;-77
2022/12/09 04:29:27;;;;;;;31.63;15.50;;;;;;;;;;5008377;28;20089;-78
2022/12/09 04:31:52;;;;;;;17.00;10.70;;;;;;;;;;4989591;28;20421;-78
2022/12/09 04:34:18;;;;;;;30.45;15.35;;;;;;;;;;5006805;28;20630;-79
2022/12/09 04:36:44;;;;;;;25.15;12.95;;;;;;;;;;5009257;28;20065;-78
2022/12/09 04:39:11;;;;;;;36.42;14.98;;;;;;;;;;5012374;28;20042;-79
2022/12/09 04:41:37;;;;;;;23.63;14.15;;;;;;;;;;5012104;28;20052;-80
2022/12/09 04:44:03;;;;;;;62.85;26.20;;;;;;;;;;5011057;28;20509;-79
2022/12/09 04:46:29;;;;;;;29.88;14.13;;;;;;;;;;5014219;28;20141;-79
2022/12/09 04:48:55;;;;;;;36.28;16.60;;;;;;;;;;5013394;28;20072;-79
2022/12/09 04:51:21;;;;;;;42.03;17.88;;;;;;;;;;4979504;28;20073;-79
2022/12/09 04:53:47;;;;;;;46.22;20.70;;;;;;;;;;5012290;28;20058;-79
2022/12/09 04:56:20;;;;;;;26.98;14.50;;;;;;;;;;5011121;28;20046;-80
2022/12/09 04:58:46;;;;;;;39.20;19.60;;;;;;;;;;5013042;28;20125;-79
2022/12/09 05:01:13;;;;;;;20.98;12.88;;;;;;;;;;5011028;28;20041;-78
2022/12/09 05:03:39;;;;;;;43.63;19.77;;;;;;;;;;4995381;28;20074;-79
2022/12/09 05:06:09;;;;;;;20.92;10.80;;;;;;;;;;5007057;28;20495;-77
2022/12/09 05:08:39;;;;;;;35.00;17.05;;;;;;;;;;5006152;28;20113;-77
2022/12/09 05:11:05;;;;;;;37.70;17.55;;;;;;;;;;5008488;28;20050;-76
2022/12/09 05:13:31;;;;;;;20.05;13.70;;;;;;;;;;5005565;28;20132;-76
2022/12/09 05:16:07;;;;;;;20.25;14.07;;;;;;;;;;5009044;28;20130;-77
2022/12/09 05:18:36;;;;;;;32.05;16.08;;;;;;;;;;4995378;28;20042;-76
2022/12/09 05:21:05;;;;;;;35.58;18.35;;;;;;;;;;5006550;28;20046;-74
2022/12/09 05:23:35;;;;;;;30.65;14.85;;;;;;;;;;5012106;28;20049;-74
2022/12/09 05:26:02;;;;;;;39.47;18.25;;;;;;;;;;5008811;28;20110;-73
2022/12/09 05:28:28;;;;;;;34.92;16.10;;;;;;;;;;5012239;28;20529;-74
2022/12/09 05:30:58;;;;;;;34.97;16.95;;;;;;;;;;5030609;28;20517;-73
2022/12/09 05:33:27;;;;;;;26.02;15.95;;;;;;;;;;5028876;28;20533;-74
2022/12/09 05:35:53;;;;;;;29.77;15.63;;;;;;;;;;5028947;28;20105;-74
2022/12/09 05:38:19;;;;;;;37.05;18.50;;;;;;;;;;5024851;28;20034;-73
2022/12/09 05:40:45;;;;;;;41.17;19.30;;;;;;;;;;5009460;28;20046;-74
2022/12/09 05:43:12;;;;;;;17.27;10.63;;;;;;;;;;5009480;28;20061;-74
2022/12/09 05:45:37;;;;;;;22.00;13.27;;;;;;;;;;5009486;28;20503;-74
2022/12/09 05:48:05;;;;;;;32.42;18.27;;;;;;;;;;5010097;28;20124;-74
2022/12/09 05:50:31;;;;;;;35.63;19.60;;;;;;;;;;5011112;28;20124;-76
2022/12/09 05:53:00;;;;;;;36.55;19.85;;;;;;;;;;4961391;28;20062;-74
2022/12/09 05:55:26;;;;;;;29.92;17.27;;;;;;;;;;5010991;28;20050;-74
2022/12/09 05:57:52;;;;;;;30.05;16.88;;;;;;;;;;5009690;28;20690;-74
2022/12/09 06:00:18;;;;;;;25.50;14.70;;;;;;;;;;5009399;28;20038;-74
2022/12/09 06:02:44;;;;;;;19.15;12.68;;;;;;;;;;5008738;28;20038;-74
2022/12/09 06:05:11;;;;;;;29.50;14.23;;;;;;;;;;5010448;28;20038;-74
2022/12/09 06:07:40;;;;;;;9.90;8.40;;;;;;;;;;5008369;28;20526;-74
2022/12/09 06:10:06;;;;;;;34.55;19.10;;;;;;;;;;5008887;28;20048;-74
2022/12/09 06:12:32;;;;;;;25.25;14.93;;;;;;;;;;5010176;28;20057;-74
2022/12/09 06:14:58;;;;;;;26.90;16.60;;;;;;;;;;5014952;28;20029;-74
2022/12/09 06:17:24;;;;;;;41.22;17.67;;;;;;;;;;5012225;28;20564;-74
2022/12/09 06:19:50;;;;;;;31.95;20.55;;;;;;;;;;5028505;28;20455;-74
2022/12/09 06:22:16;;;;;;;16.67;12.38;;;;;;;;;;5029400;28;20049;-74
2022/12/09 06:24:42;;;;;;;30.05;17.88;;;;;;;;;;5030108;28;20041;-74
2022/12/09 06:27:08;;;;;;;12.82;10.82;;;;;;;;;;5028018;28;20745;-74
2022/12/09 06:29:34;;;;;;;24.73;15.15;;;;;;;;;;5008863;28;20060;-73
2022/12/09 06:32:00;;;;;;;17.35;11.23;;;;;;;;;;5007950;28;20560;-74
2022/12/09 06:34:28;;;;;;;25.42;14.85;;;;;;;;;;4992034;28;20426;-74
2022/12/09 06:36:54;;;;;;;19.73;12.13;;;;;;;;;;5024876;28;20038;-74
2022/12/09 06:39:20;;;;;;;36.25;19.33;;;;;;;;;;5011462;28;20041;-74
2022/12/09 06:41:46;;;;;;;29.58;17.95;;;;;;;;;;5029282;28;20042;-76
2022/12/09 06:44:12;;;;;;;34.22;19.30;;;;;;;;;;5011326;28;20110;-77
2022/12/09 06:46:38;;;;;;;21.52;14.70;;;;;;;;;;5027429;28;20501;-75
2022/12/09 06:49:04;;;;;;;19.35;12.43;;;;;;;;;;4996457;28;20087;-76
2022/12/09 06:51:30;;;;;;;14.48;11.90;;;;;;;;;;5006973;28;20073;-76
2022/12/09 06:53:56;;;;;;;21.33;15.18;;;;;;;;;;4975353;28;20049;-76
2022/12/09 06:56:22;;;;;;;15.15;13.48;;;;;;;;;;4976393;28;20398;-76
2022/12/09 06:58:48;;;;;;;13.63;9.40;;;;;;;;;;5010810;28;20042;-75
2022/12/09 07:01:15;;;;;;;23.42;15.00;;;;;;;;;;5010773;28;20042;-75
2022/12/09 07:03:42;;;;;;;25.10;14.30;;;;;;;;;;5010534;28;20136;-75
2022/12/09 07:06:16;;;;;;;22.08;15.43;;;;;;;;;;5010233;28;20443;-74
2022/12/09 07:08:43;;;;;;;29.40;14.98;;;;;;;;;;5003367;28;20052;-77
2022/12/09 07:11:09;;;;;;;15.18;9.38;;;;;;;;;;5006982;28;20481;-76
2022/12/09 07:13:38;;;;;;;30.80;18.30;;;;;;;;;;4992373;28;20057;-77
2022/12/09 07:16:04;;;;;;;25.55;16.10;;;;;;;;;;5004228;28;20049;-76
2022/12/09 07:18:30;;;;;;;20.48;12.65;;;;;;;;;;5029411;28;20099;-75
2022/12/09 07:20:56;;;;;;;21.08;14.10;;;;;;;;;;5010059;28;20082;-76
2022/12/09 07:23:24;;;;;;;15.10;10.43;;;;;;;;;;5008162;28;20116;-77
2022/12/09 07:25:56;;;;;;;26.33;15.45;;;;;;;;;;4991812;28;20038;-76
2022/12/09 07:28:22;;;;;;;16.08;12.45;;;;;;;;;;4975283;28;20042;-75
2022/12/09 07:30:49;;;;;;;10.50;9.50;;;;;;;;;;4991922;28;20591;-76
2022/12/09 07:33:15;;;;;;;16.05;12.63;;;;;;;;;;5001424;28;20806;-77
2022/12/09 07:35:41;;;;;;;32.15;15.68;;;;;;;;;;5008953;28;20572;-74
2022/12/09 07:38:07;;;;;;;11.10;9.27;;;;;;;;;;5008543;28;20153;-73
2022/12/09 07:40:33;;;;;;;29.35;18.80;;;;;;;;;;5008590;28;20604;-74
2022/12/09 07:42:59;;;;;;;23.73;15.93;;;;;;;;;;5008611;28;20038;-73
2022/12/09 07:45:25;;;;;;;16.85;14.40;;;;;;;;;;4974378;28;20081;-74
2022/12/09 07:47:51;;;;;;;27.77;15.38;;;;;;;;;;4984219;28;20041;-74
2022/12/09 07:50:17;;;;;;;38.88;20.90;;;;;;;;;;5007385;28;20164;-73
2022/12/09 07:52:43;;;;;;;21.50;13.23;;;;;;;;;;4989813;28;20053;-75
2022/12/09 07:55:11;;;;;;;26.25;14.63;;;;;;;;;;5008487;28;20597;-74
2022/12/09 07:57:41;;;;;;;23.55;13.30;;;;;;;;;;5008612;28;20053;-75
2022/12/09 08:00:07;;;;;;;17.02;9.77;;;;;;;;;;5008331;28;20037;-75
2022/12/09 08:02:38;;;;;;;43.38;22.15;;;;;;;;;;5000362;28;20054;-75
2022/12/09 08:05:04;;;;;;;34.35;19.20;;;;;;;;;;5006529;28;20038;-75
2022/12/09 08:07:30;;;;;;;24.88;15.55;;;;;;;;;;5007127;28;20045;-75
2022/12/09 08:09:56;;;;;;;25.95;12.57;;;;;;;;;;4990732;28;20034;-76
2022/12/09 08:12:23;;;;;;;25.90;13.65;;;;;;;;;;5007455;28;20062;-75
2022/12/09 08:14:50;;;;;;;20.23;13.18;;;;;;;;;;4996316;28;20597;-77
2022/12/09 08:17:16;;;;;;;28.23;15.27;;;;;;;;;;5026503;28;20068;-76
2022/12/09 08:19:43;;;;;;;41.63;16.08;;;;;;;;;;5014579;28;20041;-78
2022/12/09 08:22:09;;;;;;;15.57;10.60;;;;;;;;;;5005954;28;20037;-77
2022/12/09 08:24:35;;;;;;;14.85;10.48;;;;;;;;;;5005816;28;20131;-75
2022/12/09 08:27:01;;;;;;;21.65;10.02;;;;;;;;;;5008905;28;20038;-75
2022/12/09 08:29:27;;;;;;;17.30;11.93;;;;;;;;;;5009034;28;20053;-74
2022/12/09 08:31:54;;;;;;;23.20;14.82;;;;;;;;;;4998216;28;20052;-74
2022/12/09 08:34:20;;;;;;;31.20;14.38;;;;;;;;;;5007891;28;20544;-74
2022/12/09 08:36:46;;;;;;;26.45;14.18;;;;;;;;;;5009544;28;20522;-76
2022/12/09 08:39:14;;;;;;;12.30;9.48;;;;;;;;;;5025693;28;20041;-75
2022/12/09 08:41:41;;;;;;;26.38;16.35;;;;;;;;;;5036065;28;20042;-74
2022/12/09 08:44:11;;;;;;;15.70;11.63;;;;;;;;;;5019338;28;20049;-76
2022/12/09 08:46:37;;;;;;;10.88;8.90;;;;;;;;;;5007290;28;20049;-76
2022/12/09 08:49:04;;;;;;;15.85;13.07;;;;;;;;;;5017416;28;20045;-76
2022/12/09 08:51:30;;;;;;;30.42;16.83;;;;;;;;;;5015271;28;20157;-74
2022/12/09 08:53:56;;;;;;;31.27;18.85;;;;;;;;;;5028558;28;20072;-74
2022/12/09 08:56:23;;;;;;;13.60;10.98;;;;;;;;;;5000398;28;20038;-74
2022/12/09 08:58:49;;;;;;;28.60;17.15;;;;;;;;;;5004247;28;20049;-75
2022/12/09 09:01:16;;;;;;;23.73;13.00;;;;;;;;;;5028217;28;20045;-75
2022/12/09 09:03:42;;;;;;;19.13;11.65;;;;;;;;;;5010358;28;20044;-76
2022/12/09 09:06:08;;;;;;;14.70;12.52;;;;;;;;;;4991115;28;20109;-74
2022/12/09 09:08:34;;;;;;;18.15;10.38;;;;;;;;;;5007940;28;20369;-74
2022/12/09 09:11:00;;;;;;;13.85;10.48;;;;;;;;;;5005569;28;20184;-74
2022/12/09 09:13:26;;;;;;;17.55;10.88;;;;;;;;;;5007240;28;20530;-73
2022/12/09 09:15:52;;;;;;;13.85;9.80;;;;;;;;;;5020004;28;20041;-75
2022/12/09 09:18:18;;;;;;;28.65;16.70;;;;;;;;;;5027429;28;20176;-73
2022/12/09 09:20:46;;;;;;;18.58;12.77;;;;;;;;;;5026580;28;20548;-74
2022/12/09 09:23:13;;;;;;;30.88;19.38;;;;;;;;;;5023016;28;20156;-74
2022/12/09 09:25:40;;;;;;;10.85;9.73;;;;;;;;;;5013034;28;20041;-74
2022/12/09 09:28:07;;;;;;;18.35;12.85;;;;;;;;;;5020397;28;20107;-73
2022/12/09 09:30:33;;;;;;;31.27;19.33;;;;;;;;;;5011286;28;20045;-74
2022/12/09 09:32:59;;;;;;;20.13;11.75;;;;;;;;;;5026157;28;20713;-74
2022/12/09 09:35:25;;;;;;;13.20;8.73;;;;;;;;;;5007247;28;20104;-75
2022/12/09 09:37:53;;;;;;;10.20;8.45;;;;;;;;;;4993120;28;20045;-73
2022/12/09 09:40:20;;;;;;;9.88;8.05;;;;;;;;;;5016127;28;20033;-75
2022/12/09 09:42:47;;;;;;;25.35;17.27;;;;;;;;;;5030714;28;20045;-76
2022/12/09 09:45:14;;;;;;;21.98;14.27;;;;;;;;;;5012875;28;20052;-77
2022/12/09 09:47:45;;;;;;;26.75;19.17;;;;;;;;;;5012967;28;20041;-75
2022/12/09 09:50:29;;;;;;;24.90;16.45;;;;;;;;;;5013232;28;20038;-74
2022/12/09 09:52:55;;;;;;;9.63;8.25;;;;;;;;;;5028875;28;20102;-74
2022/12/09 09:55:53;;;;;;;20.17;13.23;;;;;;;;;;5010949;28;20054;-74
2022/12/09 09:58:23;;;;;;;13.88;10.38;;;;;;;;;;4920685;28;20058;-73
2022/12/09 10:01:02;;;;;;;22.38;11.73;;;;;;;;;;4991199;28;20042;-74
2022/12/09 10:03:45;;;;;;;13.30;8.27;;;;;;;;;;4989024;28;20050;-75
2022/12/09 10:06:16;;;;;;;12.73;10.60;;;;;;;;;;5001895;28;20041;-76
2022/12/09 10:08:48;;;;;;;12.30;10.43;;;;;;;;;;5012279;28;20045;-75
2022/12/09 10:11:33;;;;;;;12.93;8.32;;;;;;;;;;5008556;28;20042;-74
2022/12/09 10:14:03;;;;;;;18.90;10.77;;;;;;;;;;5010379;28;20089;-77
2022/12/09 10:16:29;;;;;;;14.90;10.40;;;;;;;;;;5027865;28;20048;-76
2022/12/09 10:19:03;;;;;;;23.48;14.60;;;;;;;;;;5015828;28;20081;-76
2022/12/09 10:21:29;;;;;;;20.13;13.27;;;;;;;;;;5006452;28;20069;-76
2022/12/09 10:23:55;;;;;;;29.48;17.92;;;;;;;;;;5005262;28;20050;-77
2022/12/09 10:26:22;;;;;;;19.55;12.68;;;;;;;;;;5008333;28;20057;-76
2022/12/09 10:28:52;;;;;;;30.42;17.02;;;;;;;;;;5010055;28;20106;-77
2022/12/09 10:31:18;;;;;;;11.30;9.82;;;;;;;;;;5008281;28;20037;-76
2022/12/09 10:33:44;;;;;;;24.73;15.07;;;;;;;;;;5008178;28;20066;-77
2022/12/09 10:36:21;;;;;;;18.02;12.63;;;;;;;;;;5009139;28;20070;-76
2022/12/09 10:38:47;;;;;;;17.13;13.63;;;;;;;;;;5008335;28;20045;-76
2022/12/09 10:44:18;;;;;;;45.13;16.80;;;;;;;;;;4988785;28;20050;-76
2022/12/09 10:46:45;;;;;;;30.92;16.23;;;;;;;;;;5003138;28;20136;-75
2022/12/09 10:49:20;;;;;;;11.93;10.52;;;;;;;;;;5008610;28;20089;-76
2022/12/09 10:51:47;;;;;;;10.63;8.57;;;;;;;;;;4966762;28;20038;-75
2022/12/09 10:54:16;;;;;;;29.73;15.52;;;;;;;;;;5002483;28;20080;-76
2022/12/09 10:57:01;;;;;;;35.55;15.23;;;;;;;;;;5008015;28;20064;-76
2022/12/09 10:59:28;;;;;;;27.60;15.40;;;;;;;;;;5006608;28;20045;-77
2022/12/09 11:01:55;;;;;;;18.05;11.90;;;;;;;;;;5004883;28;20119;-76
2022/12/09 11:04:25;;;;;;;23.15;12.77;;;;;;;;;;4990602;28;20037;-76
2022/12/09 11:06:52;;;;;;;17.77;8.95;;;;;;;;;;5002158;28;20089;-76
2022/12/09 11:09:20;;;;;;;25.60;13.98;;;;;;;;;;4984080;28;20056;-76
2022/12/09 11:11:48;;;;;;;21.65;14.10;;;;;;;;;;5005335;28;20046;-76
2022/12/09 11:14:27;;;;;;;15.63;8.65;;;;;;;;;;5007358;28;20050;-76
2022/12/09 11:16:55;;;;;;;22.27;16.67;;;;;;;;;;5001017;28;20160;-77
2022/12/09 11:19:28;;;;;;;14.43;9.95;;;;;;;;;;5004324;28;20064;-76
2022/12/09 11:22:11;;;;;;;13.68;10.20;;;;;;;;;;5003577;28;20044;-76
2022/12/09 11:24:37;;;;;;;7.80;6.65;;;;;;;;;;5011041;28;20042;-79
2022/12/09 11:27:05;;;;;;;10.50;9.10;;;;;;;;;;5005637;28;20120;-79
2022/12/09 11:29:30;;;;;;;25.50;12.85;;;;;;;;;;4998964;28;20033;-78
2022/12/09 11:31:57;;;;;;;11.50;8.07;;;;;;;;;;5006731;28;20042;-78
2022/12/09 11:34:24;;;;;;;17.15;12.35;;;;;;;;;;5001540;28;20092;-78
2022/12/09 11:36:55;;;;;;;15.20;11.07;;;;;;;;;;5004623;28;20053;-79
2022/12/09 11:39:26;;;;;;;14.52;8.63;;;;;;;;;;5003810;28;20084;-78
2022/12/09 11:42:20;;;;;;;9.95;8.90;;;;;;;;;;4999232;28;20058;-79
2022/12/09 11:44:51;;;;;;;25.23;15.13;;;;;;;;;;4986043;28;20038;-77
2022/12/09 11:47:29;;;;;;;17.95;12.80;;;;;;;;;;5005936;28;20052;-78
2022/12/09 11:50:18;;;;;;;24.88;11.85;;;;;;;;;;4994360;28;20066;-75
2022/12/09 11:52:44;;;;;;;13.30;11.48;;;;;;;;;;4975174;28;20069;-76
2022/12/09 11:55:12;;;;;;;32.00;16.10;;;;;;;;;;4984693;28;20045;-76
2022/12/09 11:57:57;;;;;;;15.48;8.95;;;;;;;;;;4984962;28;20053;-76
2022/12/09 12:00:24;;;;;;;15.40;10.55;;;;;;;;;;5004376;28;20432;-76
2022/12/09 12:02:50;;;;;;;17.83;11.20;;;;;;;;;;4999722;28;20152;-73
2022/12/09 12:05:22;;;;;;;13.00;10.32;;;;;;;;;;5006206;28;20459;-75
2022/12/09 12:08:00;;;;;;;18.05;13.15;;;;;;;;;;5002618;28;20096;-75
2022/12/09 12:10:28;;;;;;;14.27;11.40;;;;;;;;;;5000345;28;20108;-75
2022/12/09 12:13:12;;;;;;;11.13;8.70;;;;;;;;;;5003679;28;20054;-76
2022/12/09 12:15:38;;;;;;;20.10;13.45;;;;;;;;;;4992637;28;20061;-76
2022/12/09 12:18:07;;;;;;;14.30;10.95;;;;;;;;;;4995127;28;20060;-75
2022/12/09 12:20:59;;;;;;;14.05;11.55;;;;;;;;;;5003171;28;20041;-74
2022/12/09 12:23:44;;;;;;;13.55;9.80;;;;;;;;;;4988970;28;20092;-75
2022/12/09 12:26:21;;;;;;;11.85;10.25;;;;;;;;;;5007751;28;20481;-74
2022/12/09 12:28:47;;;;;;;31.33;17.52;;;;;;;;;;5002105;28;20540;-74
2022/12/09 12:31:22;;;;;;;21.83;13.93;;;;;;;;;;5005772;28;20061;-75
2022/12/09 12:33:59;;;;;;;14.73;11.43;;;;;;;;;;5005531;28;20053;-75
2022/12/09 12:36:49;;;;;;;20.10;11.20;;;;;;;;;;5005518;28;20041;-74
2022/12/09 12:39:15;;;;;;;20.27;12.32;;;;;;;;;;5005114;28;20092;-74
2022/12/09 12:41:45;;;;;;;12.32;7.43;;;;;;;;;;5007601;28;20069;-74
2022/12/09 12:47:08;;;;;;;4.43;4.00;;;;;;;;;;4989523;28;20057;-75
2022/12/09 12:49:34;;;;;;;13.20;10.10;;;;;;;;;;4997376;28;20042;-74
2022/12/09 12:52:15;;;;;;;12.85;10.43;;;;;;;;;;5002746;28;20038;-74
2022/12/09 12:54:41;;;;;;;26.73;17.27;;;;;;;;;;5003980;28;20054;-74
2022/12/09 12:57:07;;;;;;;11.02;8.40;;;;;;;;;;4999717;28;20506;-75
2022/12/09 12:59:47;;;;;;;17.10;11.85;;;;;;;;;;5005537;28;20051;-74
2022/12/09 13:02:32;;;;;;;20.67;10.90;;;;;;;;;;5002525;28;20093;-75
2022/12/09 13:05:12;;;;;;;26.75;11.68;;;;;;;;;;5001218;28;20042;-75
2022/12/09 13:07:37;;;;;;;19.25;13.75;;;;;;;;;;5011344;28;20713;-77
2022/12/09 13:10:03;;;;;;;11.27;10.15;;;;;;;;;;5028501;28;20135;-75
2022/12/09 13:15:42;;;;;;;12.77;9.82;;;;;;;;;;5022725;28;20133;-75
2022/12/09 13:18:11;;;;;;;11.38;9.90;;;;;;;;;;5030606;28;20045;-75
2022/12/09 13:20:47;;;;;;;10.00;9.00;;;;;;;;;;5022377;28;20047;-75
2022/12/09 13:23:21;;;;;;;11.57;6.70;;;;;;;;;;5029561;28;20038;-75
2022/12/09 13:25:47;;;;;;;13.32;11.18;;;;;;;;;;5028703;28;20037;-74
2022/12/09 13:28:22;;;;;;;9.48;6.95;;;;;;;;;;5030849;28;20052;-74
2022/12/09 13:30:58;;;;;;;9.77;7.93;;;;;;;;;;5018064;28;20046;-73
2022/12/09 13:33:43;;;;;;;13.48;10.52;;;;;;;;;;4991333;28;20065;-74
2022/12/09 13:36:16;;;;;;;5.13;4.72;;;;;;;;;;5015055;28;20233;-75
2022/12/09 13:38:42;;;;;;;21.08;11.07;;;;;;;;;;4974123;28;20619;-74
2022/12/09 13:41:26;;;;;;;13.48;9.93;;;;;;;;;;5010807;28;20081;-76
2022/12/09 13:43:53;;;;;;;13.88;9.65;;;;;;;;;;5010640;28;20038;-75
2022/12/09 13:46:26;;;;;;;11.00;9.00;;;;;;;;;;4990927;28;20084;-75
2022/12/09 13:48:52;;;;;;;15.38;9.57;;;;;;;;;;5010994;28;20037;-75
2022/12/09 13:51:18;;;;;;;25.85;12.60;;;;;;;;;;4992912;28;20037;-75
2022/12/09 13:53:45;;;;;;;12.80;11.45;;;;;;;;;;5010719;28;20064;-76
2022/12/09 13:56:28;;;;;;;9.98;7.30;;;;;;;;;;5009440;28;20581;-75
2022/12/09 13:59:12;;;;;;;12.10;9.02;;;;;;;;;;4992892;28;20100;-75
2022/12/09 14:01:42;;;;;;;12.15;6.63;;;;;;;;;;4990285;28;20717;-76
2022/12/09 14:04:08;;;;;;;14.35;10.20;;;;;;;;;;5009888;28;20073;-75
2022/12/09 14:06:34;;;;;;;8.82;7.13;;;;;;;;;;4998480;28;20097;-75
2022/12/09 14:09:06;;;;;;;12.30;9.93;;;;;;;;;;5000454;28;20046;-75
2022/12/09 14:11:36;;;;;;;11.13;6.97;;;;;;;;;;5004786;28;20042;-73
2022/12/09 14:14:21;;;;;;;13.52;9.18;;;;;;;;;;4997200;28;20050;-73
2022/12/09 14:16:47;;;;;;;9.73;8.40;;;;;;;;;;4995747;28;20062;-74
2022/12/09 14:19:36;;;;;;;8.13;6.53;;;;;;;;;;5006529;28;20153;-73
2022/12/09 14:22:21;;;;;;;7.35;6.75;;;;;;;;;;4987145;28;20465;-73
2022/12/09 14:24:51;;;;;;;8.68;6.85;;;;;;;;;;5007514;28;20045;-73
2022/12/09 14:27:18;;;;;;;9.77;8.77;;;;;;;;;;5007296;28;20495;-73
2022/12/09 14:29:44;;;;;;;7.30;6.18;;;;;;;;;;5005951;28;20078;-74
2022/12/09 14:32:18;;;;;;;13.18;10.40;;;;;;;;;;5007701;28;20053;-73
2022/12/09 14:34:44;;;;;;;7.07;6.40;;;;;;;;;;5005147;28;20050;-73
2022/12/09 14:37:26;;;;;;;10.23;9.32;;;;;;;;;;5007545;28;20091;-73
2022/12/09 14:39:52;;;;;;;;;;;;;;;;;;4979633;28;20034;-74
2022/12/09 14:42:38;;;;;;;15.02;12.55;;;;;;;;;;5007025;28;20354;-75
2022/12/09 14:45:23;;;;;;;8.98;8.00;;;;;;;;;;5008385;28;20037;-74